Time;durP1;ratioP1;P1;durP2;ratioP2;P2;SDS_P1;SDS_P2;PMS_P1;PMS_P2;Temp;Humidity;BMP_temperature;BMP_pressure;BME280_temperature;BME280_humidity;BME280_pressure;Samples;Min_cycle;Max_cycle;Signal;HPM_P1;HPM_P2
2021/10/26 00:04:04;;;;;;;8.68;3.53;;;;;;;;;;10391783;28;20469;-71
2021/10/26 00:09:07;;;;;;;3.50;2.00;;;;;;;;;;10395636;28;20041;-71
2021/10/26 00:14:10;;;;;;;8.37;4.00;;;;;;;;;;10398874;28;20038;-71
2021/10/26 00:19:14;;;;;;;10.30;4.18;;;;;;;;;;10399369;28;20064;-71
2021/10/26 00:24:17;;;;;;;;;;;;;;;;;;10399672;28;20355;-69
2021/10/26 00:29:20;;;;;;;6.37;2.20;;;;;;;;;;10401074;28;19967;-71
2021/10/26 00:34:24;;;;;;;2.55;1.77;;;;;;;;;;10394344;28;20042;-68
2021/10/26 00:39:27;;;;;;;9.55;4.47;;;;;;;;;;10387402;28;20429;-71
2021/10/26 00:44:30;;;;;;;6.25;2.97;;;;;;;;;;10401373;28;20072;-71
2021/10/26 00:49:35;;;;;;;8.07;4.00;;;;;;;;;;10394834;28;20042;-72
2021/10/26 00:54:38;;;;;;;6.03;2.90;;;;;;;;;;10397412;28;20049;-71
2021/10/26 00:59:41;;;;;;;12.53;4.20;;;;;;;;;;10393377;28;20146;-71
2021/10/26 01:04:45;;;;;;;10.00;3.22;;;;;;;;;;10382665;28;20098;-72
2021/10/26 01:09:48;;;;;;;10.38;3.85;;;;;;;;;;10387499;28;20421;-73
2021/10/26 01:15:11;;;;;;;6.65;2.78;;;;;;;;;;10384047;28;20052;-72
2021/10/26 01:20:35;;;;;;;11.63;4.13;;;;;;;;;;10392814;28;20053;-72
2021/10/26 01:25:38;;;;;;;8.27;3.53;;;;;;;;;;10383770;28;20080;-73
2021/10/26 01:30:42;;;;;;;6.38;2.92;;;;;;;;;;10383477;28;20406;-73
2021/10/26 01:36:07;;;;;;;3.43;1.47;;;;;;;;;;10393016;28;20050;-71
2021/10/26 01:41:09;;;;;;;;;;;;;;;;;;10389382;28;20049;-72
2021/10/26 01:46:12;;;;;;;8.57;3.50;;;;;;;;;;10388028;28;19940;-70
2021/10/26 01:51:16;;;;;;;8.60;3.00;;;;;;;;;;10393247;28;20049;-71
2021/10/26 01:56:19;;;;;;;;;;;;;;;;;;10390299;28;20114;-71
2021/10/26 02:01:22;;;;;;;6.63;2.60;;;;;;;;;;10392489;28;20366;-71
2021/10/26 02:06:27;;;;;;;7.60;3.37;;;;;;;;;;10397705;28;20104;-72
2021/10/26 02:11:30;;;;;;;9.37;3.60;;;;;;;;;;10392204;28;20383;-71
2021/10/26 02:16:32;;;;;;;11.33;3.67;;;;;;;;;;10394515;28;20072;-72
2021/10/26 02:21:37;;;;;;;10.80;4.00;;;;;;;;;;10397379;28;20088;-71
2021/10/26 02:26:40;;;;;;;7.37;3.20;;;;;;;;;;10397677;28;20041;-71
2021/10/26 02:31:43;;;;;;;9.33;3.23;;;;;;;;;;10401671;28;20037;-72
2021/10/26 02:36:47;;;;;;;7.00;3.20;;;;;;;;;;10398773;28;20127;-71
2021/10/26 02:41:50;;;;;;;8.13;3.67;;;;;;;;;;10400478;28;20358;-72
2021/10/26 02:46:53;;;;;;;5.77;3.10;;;;;;;;;;10400597;28;20151;-72
2021/10/26 02:51:57;;;;;;;7.60;3.50;;;;;;;;;;10406963;28;20427;-71
2021/10/26 02:57:00;;;;;;;;;;;;;;;;;;10406162;28;20048;-72
2021/10/26 03:02:03;;;;;;;7.63;2.67;;;;;;;;;;10400063;28;19944;-72
2021/10/26 03:07:07;;;;;;;5.17;2.10;;;;;;;;;;10400319;28;20072;-71
2021/10/26 03:12:10;;;;;;;7.27;2.70;;;;;;;;;;10398918;28;20057;-72
2021/10/26 03:17:13;;;;;;;5.50;2.97;;;;;;;;;;10401462;28;20177;-73
2021/10/26 03:22:17;;;;;;;7.30;2.70;;;;;;;;;;10402282;28;20159;-72
2021/10/26 03:27:20;;;;;;;;;;;;;;;;;;10404978;28;20077;-72
2021/10/26 03:32:23;;;;;;;2.03;1.37;;;;;;;;;;10397491;28;19921;-73
2021/10/26 03:37:27;;;;;;;5.40;1.63;;;;;;;;;;10389234;28;20053;-71
2021/10/26 03:42:30;;;;;;;;;;;;;;;;;;10389653;28;20065;-72
2021/10/26 03:47:33;;;;;;;6.33;2.87;;;;;;;;;;10389749;28;20393;-70
2021/10/26 03:52:37;;;;;;;10.43;2.77;;;;;;;;;;10396808;28;20120;-72
2021/10/26 03:57:40;;;;;;;7.13;2.87;;;;;;;;;;10396159;28;20145;-70
2021/10/26 04:02:43;;;;;;;7.87;2.70;;;;;;;;;;10389491;28;20134;-71
2021/10/26 04:07:53;;;;;;;5.97;2.53;;;;;;;;;;10395070;28;20909;-72
2021/10/26 04:12:55;;;;;;;7.00;2.40;;;;;;;;;;10395632;28;20120;-72
2021/10/26 04:17:59;;;;;;;7.00;2.05;;;;;;;;;;10393116;28;20100;-72
2021/10/26 04:23:23;;;;;;;5.57;2.47;;;;;;;;;;10392157;28;20045;-69
2021/10/26 04:28:26;;;;;;;2.83;1.20;;;;;;;;;;10392012;28;20049;-71
2021/10/26 04:33:29;;;;;;;2.83;1.63;;;;;;;;;;10391759;28;20038;-71
2021/10/26 04:38:33;;;;;;;7.13;2.47;;;;;;;;;;10385737;28;20037;-72
2021/10/26 04:43:36;;;;;;;6.20;2.60;;;;;;;;;;10393961;28;20413;-71
2021/10/26 04:48:40;;;;;;;7.20;2.60;;;;;;;;;;10391268;28;20378;-73
2021/10/26 04:53:44;;;;;;;7.23;2.97;;;;;;;;;;10392928;28;20037;-70
2021/10/26 04:58:48;;;;;;;6.10;2.60;;;;;;;;;;10390277;28;20041;-72
2021/10/26 05:03:51;;;;;;;5.53;2.53;;;;;;;;;;10391608;28;20046;-71
2021/10/26 05:08:55;;;;;;;5.80;2.57;;;;;;;;;;10399102;28;20355;-72
2021/10/26 05:13:58;;;;;;;;;;;;;;;;;;10393655;28;20625;-72
2021/10/26 05:19:03;;;;;;;7.37;2.53;;;;;;;;;;10387847;28;19921;-71
2021/10/26 05:24:10;;;;;;;7.43;3.10;;;;;;;;;;10386345;28;20506;-70
2021/10/26 05:29:13;;;;;;;5.67;2.93;;;;;;;;;;10387909;28;20073;-73
2021/10/26 05:34:17;;;;;;;8.25;3.45;;;;;;;;;;10389451;28;20033;-72
2021/10/26 05:39:21;;;;;;;5.63;2.60;;;;;;;;;;10384690;28;20057;-71
2021/10/26 05:44:24;;;;;;;7.87;3.03;;;;;;;;;;10389896;28;20073;-73
2021/10/26 05:49:27;;;;;;;11.00;4.10;;;;;;;;;;10389353;28;20351;-71
2021/10/26 05:54:32;;;;;;;12.83;4.83;;;;;;;;;;10388083;28;20049;-72
2021/10/26 05:59:35;;;;;;;11.17;3.73;;;;;;;;;;10392281;28;20045;-71
2021/10/26 06:04:38;;;;;;;1.87;1.10;;;;;;;;;;10391363;28;20045;-71
2021/10/26 06:09:42;;;;;;;7.80;3.25;;;;;;;;;;10386939;28;20125;-70
2021/10/26 06:14:45;;;;;;;10.68;3.70;;;;;;;;;;10383514;28;20034;-72
2021/10/26 06:19:48;;;;;;;9.30;3.20;;;;;;;;;;10385616;28;20128;-71
2021/10/26 06:24:52;;;;;;;18.70;4.50;;;;;;;;;;10390558;28;20042;-71
2021/10/26 06:29:55;;;;;;;14.45;4.32;;;;;;;;;;10392118;28;20037;-72
2021/10/26 06:34:58;;;;;;;15.30;4.68;;;;;;;;;;10393401;28;20044;-71
2021/10/26 06:40:03;;;;;;;2.17;0.85;;;;;;;;;;10389091;28;20425;-73
2021/10/26 06:45:06;;;;;;;12.30;4.18;;;;;;;;;;10380546;28;20029;-72
2021/10/26 06:50:09;;;;;;;14.23;4.70;;;;;;;;;;10382752;28;20049;-71
2021/10/26 06:55:18;;;;;;;12.70;4.50;;;;;;;;;;10381646;28;20034;-73
2021/10/26 07:00:22;;;;;;;12.60;4.68;;;;;;;;;;10385766;28;20049;-72
2021/10/26 07:05:25;;;;;;;10.63;4.88;;;;;;;;;;10386611;28;20038;-71
2021/10/26 07:10:30;;;;;;;14.93;5.10;;;;;;;;;;10386812;28;20046;-71
2021/10/26 07:15:33;;;;;;;12.50;5.53;;;;;;;;;;10400582;28;20080;-70
2021/10/26 07:20:36;;;;;;;13.15;4.85;;;;;;;;;;10400209;28;20048;-72
2021/10/26 07:25:45;;;;;;;14.02;4.85;;;;;;;;;;10397489;28;20356;-72
2021/10/26 07:30:47;;;;;;;11.60;3.97;;;;;;;;;;10395139;28;20119;-73
2021/10/26 07:35:52;;;;;;;12.15;4.63;;;;;;;;;;10393155;28;20042;-72
2021/10/26 07:40:57;;;;;;;11.52;4.75;;;;;;;;;;10396570;28;20049;-72
2021/10/26 07:46:00;;;;;;;11.98;4.82;;;;;;;;;;10395293;28;20093;-72
2021/10/26 07:51:03;;;;;;;9.93;5.13;;;;;;;;;;10401471;28;20052;-73
2021/10/26 07:56:09;;;;;;;13.80;5.47;;;;;;;;;;10396710;28;20401;-73
2021/10/26 08:01:12;;;;;;;8.40;5.22;;;;;;;;;;10398094;28;20477;-72
2021/10/26 08:06:15;;;;;;;10.40;5.50;;;;;;;;;;10394293;28;20121;-72
2021/10/26 08:11:18;;;;;;;;;;;;;;;;;;10398605;28;20379;-74
2021/10/26 08:16:22;;;;;;;14.13;5.28;;;;;;;;;;10389541;28;19974;-73
2021/10/26 08:21:25;;;;;;;10.40;4.35;;;;;;;;;;10398312;28;20481;-73
2021/10/26 08:26:32;;;;;;;8.35;4.40;;;;;;;;;;10398778;28;20129;-71
2021/10/26 08:31:44;;;;;;;10.20;4.70;;;;;;;;;;10386850;28;20041;-72
2021/10/26 08:36:48;;;;;;;10.85;4.30;;;;;;;;;;10392699;28;20068;-73
2021/10/26 08:41:52;;;;;;;9.70;4.95;;;;;;;;;;10396326;28;20061;-71
2021/10/26 08:46:57;;;;;;;9.07;4.10;;;;;;;;;;10390663;28;20589;-72
2021/10/26 08:52:05;;;;;;;8.68;3.22;;;;;;;;;;10393309;28;20069;-73
2021/10/26 08:57:08;;;;;;;8.20;4.20;;;;;;;;;;10386288;28;20520;-71
2021/10/26 09:02:12;;;;;;;8.77;4.78;;;;;;;;;;10395326;28;20080;-71
2021/10/26 09:07:17;;;;;;;9.25;3.90;;;;;;;;;;10392538;28;20228;-72
2021/10/26 09:17:44;;;;;;;11.68;4.88;;;;;;;;;;10387075;28;20112;-71
2021/10/26 09:22:47;;;;;;;11.18;4.20;;;;;;;;;;10388250;28;20421;-73
2021/10/26 09:27:50;;;;;;;3.83;2.05;;;;;;;;;;10384962;28;20573;-72
2021/10/26 09:32:54;;;;;;;13.70;5.00;;;;;;;;;;10387001;28;20041;-72
2021/10/26 09:37:58;;;;;;;8.95;4.35;;;;;;;;;;10386207;28;20042;-73
2021/10/26 09:43:05;;;;;;;11.90;5.40;;;;;;;;;;10384129;28;20050;-72
2021/10/26 09:48:12;;;;;;;7.00;3.33;;;;;;;;;;10383783;28;20386;-69
2021/10/26 09:53:16;;;;;;;20.90;6.13;;;;;;;;;;10393674;28;20432;-72
2021/10/26 09:58:20;;;;;;;11.98;5.55;;;;;;;;;;10395868;28;20115;-72
2021/10/26 10:03:25;;;;;;;18.08;5.90;;;;;;;;;;10386160;28;20069;-72
2021/10/26 10:08:29;;;;;;;11.77;5.95;;;;;;;;;;10384099;28;20049;-71
2021/10/26 10:13:33;;;;;;;9.68;4.40;;;;;;;;;;10390195;28;20037;-72
2021/10/26 10:18:37;;;;;;;15.03;5.50;;;;;;;;;;10386410;28;20394;-73
2021/10/26 10:23:43;;;;;;;15.88;6.47;;;;;;;;;;10384002;28;20772;-71
2021/10/26 10:28:48;;;;;;;10.73;5.22;;;;;;;;;;10386835;28;20096;-73
2021/10/26 10:33:54;;;;;;;10.45;4.57;;;;;;;;;;10391057;28;20042;-72
2021/10/26 10:38:58;;;;;;;13.00;5.22;;;;;;;;;;10396201;28;20046;-72
2021/10/26 10:44:01;;;;;;;10.60;5.47;;;;;;;;;;10400509;28;20045;-73
2021/10/26 10:49:19;;;;;;;13.98;5.13;;;;;;;;;;10398933;28;20080;-73
2021/10/26 10:54:44;;;;;;;12.73;5.38;;;;;;;;;;10385499;28;20068;-69
2021/10/26 10:59:50;;;;;;;11.23;5.18;;;;;;;;;;10393349;28;20166;-73
2021/10/26 11:04:54;;;;;;;13.50;5.07;;;;;;;;;;10394910;28;20072;-72
2021/10/26 11:09:58;;;;;;;12.82;5.85;;;;;;;;;;10400032;28;20046;-72
2021/10/26 11:15:03;;;;;;;11.93;5.30;;;;;;;;;;10399651;28;20091;-72
2021/10/26 11:20:07;;;;;;;9.02;4.50;;;;;;;;;;10400837;28;20045;-74
2021/10/26 11:25:21;;;;;;;11.32;4.90;;;;;;;;;;10389451;28;20079;-72
2021/10/26 11:30:48;;;;;;;11.18;5.05;;;;;;;;;;10398192;28;20321;-72
2021/10/26 11:35:55;;;;;;;11.05;4.93;;;;;;;;;;10391966;28;20377;-73
2021/10/26 11:41:00;;;;;;;7.95;4.15;;;;;;;;;;10399517;28;20065;-73
2021/10/26 11:46:04;;;;;;;14.68;5.93;;;;;;;;;;10393071;28;20042;-72
2021/10/26 11:51:24;;;;;;;9.32;4.28;;;;;;;;;;10394123;28;20114;-71
2021/10/26 11:56:29;;;;;;;11.23;4.93;;;;;;;;;;10397529;28;20091;-73
2021/10/26 12:01:33;;;;;;;9.95;4.82;;;;;;;;;;10397715;28;20087;-73
2021/10/26 12:06:36;;;;;;;8.40;4.72;;;;;;;;;;10390563;28;20042;-73
2021/10/26 12:11:41;;;;;;;9.85;4.57;;;;;;;;;;10386283;28;20065;-73
2021/10/26 12:17:02;;;;;;;9.07;4.50;;;;;;;;;;10396298;28;20472;-72
2021/10/26 12:22:05;;;;;;;7.90;4.18;;;;;;;;;;10382977;28;20060;-73
2021/10/26 12:27:09;;;;;;;10.65;4.55;;;;;;;;;;10394077;28;20076;-73
2021/10/26 12:32:13;;;;;;;5.38;2.10;;;;;;;;;;10389771;28;20117;-71
2021/10/26 12:37:23;;;;;;;4.32;2.38;;;;;;;;;;10393518;28;20044;-72
2021/10/26 12:42:29;;;;;;;4.68;2.17;;;;;;;;;;10398294;28;20576;-72
2021/10/26 12:47:34;;;;;;;;;;;;;;;;;;10394132;28;20060;-72
2021/10/26 12:52:36;;;;;;;;;;;;;;;;;;10395130;28;20390;-71
2021/10/26 12:57:39;;;;;;;;;;;;;;;;;;10396788;28;19971;-72
2021/10/26 13:02:43;;;;;;;8.80;2.80;;;;;;;;;;10389187;28;20381;-71
2021/10/26 13:07:46;;;;;;;5.53;2.70;;;;;;;;;;10388015;28;20363;-70
2021/10/26 13:13:05;;;;;;;6.27;3.10;;;;;;;;;;10399484;28;20103;-73
2021/10/26 13:18:11;;;;;;;5.88;3.45;;;;;;;;;;10397669;28;20108;-71
2021/10/26 13:23:15;;;;;;;7.93;3.55;;;;;;;;;;10395386;28;20484;-72
2021/10/26 13:28:18;;;;;;;;;;;;;;;;;;10390529;28;20100;-70
2021/10/26 13:33:23;;;;;;;8.20;3.28;;;;;;;;;;10389264;28;19928;-73
2021/10/26 13:38:26;;;;;;;5.97;3.03;;;;;;;;;;10384344;28;20041;-71
2021/10/26 13:43:29;;;;;;;;;;;;;;;;;;10399266;28;20045;-72
2021/10/26 13:48:35;;;;;;;5.35;2.60;;;;;;;;;;10390336;28;20353;-73
2021/10/26 13:53:38;;;;;;;4.95;2.80;;;;;;;;;;10386989;28;20045;-72
2021/10/26 13:58:42;;;;;;;6.13;2.65;;;;;;;;;;10383881;28;20045;-72
2021/10/26 14:03:47;;;;;;;4.22;2.00;;;;;;;;;;10383889;28;20037;-73
2021/10/26 14:08:51;;;;;;;10.93;4.82;;;;;;;;;;10387220;28;20047;-72
2021/10/26 14:13:54;;;;;;;8.88;2.58;;;;;;;;;;10387190;28;20052;-73
2021/10/26 14:18:58;;;;;;;4.97;2.73;;;;;;;;;;10382606;28;20136;-71
2021/10/26 14:24:01;;;;;;;5.68;2.58;;;;;;;;;;10391965;28;20426;-72
2021/10/26 14:29:17;;;;;;;7.95;3.20;;;;;;;;;;10388642;28;20520;-73
2021/10/26 14:34:23;;;;;;;6.13;2.80;;;;;;;;;;10388688;28;20435;-73
2021/10/26 14:40:02;;;;;;;7.53;4.25;;;;;;;;;;10385107;28;20304;-72
2021/10/26 14:56:01;;;;;;;;;;;;;;;;;;10386200;28;20033;-71
2021/10/26 15:01:04;;;;;;;;;;;;;;;;;;10387477;28;19921;-71
2021/10/26 15:06:11;;;;;;;8.00;2.33;;;;;;;;;;10383561;28;20601;-71
2021/10/26 15:11:17;;;;;;;9.88;3.75;;;;;;;;;;10392038;28;20049;-72
2021/10/26 15:16:24;;;;;;;;;;;;;;;;;;10393427;28;20505;-72
2021/10/26 15:21:33;;;;;;;10.13;4.63;;;;;;;;;;10386737;28;19952;-73
2021/10/26 15:37:18;;;;;;;11.77;4.40;;;;;;;;;;10385487;28;20076;-72
2021/10/26 15:42:21;;;;;;;9.57;4.32;;;;;;;;;;10388440;28;20141;-72
2021/10/26 15:47:24;;;;;;;11.80;4.47;;;;;;;;;;10395240;28;20037;-72
2021/10/26 15:52:29;;;;;;;10.35;4.20;;;;;;;;;;10396225;28;20563;-73
2021/10/26 15:57:31;;;;;;;9.60;4.13;;;;;;;;;;10387525;28;20469;-72
2021/10/26 16:02:35;;;;;;;10.65;4.50;;;;;;;;;;10397265;28;20401;-71
2021/10/26 16:07:43;;;;;;;12.07;4.53;;;;;;;;;;10394850;28;20057;-72
2021/10/26 16:12:48;;;;;;;11.40;4.65;;;;;;;;;;10392397;28;20505;-70
2021/10/26 16:17:52;;;;;;;10.10;4.68;;;;;;;;;;10396780;28;20119;-73
2021/10/26 16:22:56;;;;;;;11.48;5.13;;;;;;;;;;10396934;28;20042;-73
2021/10/26 16:27:59;;;;;;;14.60;5.43;;;;;;;;;;10396265;28;20263;-73
2021/10/26 16:33:02;;;;;;;13.57;5.55;;;;;;;;;;10395194;28;20050;-71
2021/10/26 16:38:10;;;;;;;10.73;4.70;;;;;;;;;;10385035;28;20623;-72
2021/10/26 16:43:28;;;;;;;9.88;4.72;;;;;;;;;;10398884;28;20045;-71
2021/10/26 16:48:31;;;;;;;17.30;7.68;;;;;;;;;;10391191;28;20502;-75
2021/10/26 16:53:46;;;;;;;;;;;;;;;;;;10390464;28;20103;-72
2021/10/26 16:58:51;;;;;;;16.50;5.60;;;;;;;;;;10391416;28;19922;-69
2021/10/26 17:03:54;;;;;;;14.57;5.88;;;;;;;;;;10389903;28;20127;-72
2021/10/26 17:08:57;;;;;;;30.53;8.10;;;;;;;;;;10392704;28;20096;-71
2021/10/26 17:14:02;;;;;;;18.20;7.45;;;;;;;;;;10395594;28;20155;-72
2021/10/26 17:19:05;;;;;;;20.52;7.93;;;;;;;;;;10392477;28;20107;-72
2021/10/26 17:24:08;;;;;;;36.58;10.63;;;;;;;;;;10383568;28;20144;-72
2021/10/26 17:29:12;;;;;;;28.85;9.13;;;;;;;;;;10391874;28;20038;-71
2021/10/26 17:34:17;;;;;;;18.17;7.05;;;;;;;;;;10391977;28;20045;-70
2021/10/26 17:39:20;;;;;;;18.88;7.55;;;;;;;;;;10389253;28;20038;-72
2021/10/26 17:44:25;;;;;;;16.48;6.45;;;;;;;;;;10383462;28;20049;-73
2021/10/26 17:49:27;;;;;;;25.25;10.10;;;;;;;;;;10380285;28;20033;-72
2021/10/26 17:54:30;;;;;;;22.40;8.02;;;;;;;;;;10386271;28;20046;-72
2021/10/26 17:59:35;;;;;;;20.27;7.80;;;;;;;;;;10390416;28;20535;-74
2021/10/26 18:04:37;;;;;;;18.83;8.85;;;;;;;;;;10390704;28;20044;-73
2021/10/26 18:09:40;;;;;;;22.45;7.90;;;;;;;;;;10391700;28;20037;-72
2021/10/26 18:14:45;;;;;;;16.77;7.38;;;;;;;;;;10394740;28;20038;-71
2021/10/26 18:19:48;;;;;;;16.55;7.72;;;;;;;;;;10393462;28;20026;-72
2021/10/26 18:24:51;;;;;;;21.33;8.13;;;;;;;;;;10385065;28;20439;-72
2021/10/26 18:30:08;;;;;;;21.15;8.73;;;;;;;;;;10388483;28;20099;-72
2021/10/26 18:35:11;;;;;;;18.92;8.90;;;;;;;;;;10385245;28;20186;-72
2021/10/26 18:40:16;;;;;;;19.17;8.52;;;;;;;;;;10382474;28;20167;-72
2021/10/26 18:45:24;;;;;;;19.83;9.10;;;;;;;;;;10391079;28;20054;-72
2021/10/26 18:50:27;;;;;;;20.13;8.77;;;;;;;;;;10385713;28;20053;-72
2021/10/26 18:55:30;;;;;;;24.23;10.43;;;;;;;;;;10391426;28;20261;-72
2021/10/26 19:00:35;;;;;;;23.08;9.32;;;;;;;;;;10387377;28;20049;-72
2021/10/26 19:05:42;;;;;;;26.02;9.73;;;;;;;;;;10395662;28;20046;-72
2021/10/26 19:10:45;;;;;;;25.60;8.40;;;;;;;;;;10401549;28;20042;-72
2021/10/26 19:15:49;;;;;;;29.60;11.00;;;;;;;;;;10396866;28;20033;-73
2021/10/26 19:20:52;;;;;;;26.75;9.85;;;;;;;;;;10393473;28;20359;-72
2021/10/26 19:25:55;;;;;;;23.63;9.55;;;;;;;;;;10393718;28;20042;-75
2021/10/26 19:30:59;;;;;;;58.15;23.73;;;;;;;;;;10398237;28;20045;-72
2021/10/26 19:36:02;;;;;;;23.17;9.77;;;;;;;;;;10403489;28;20034;-73
2021/10/26 19:41:06;;;;;;;23.42;9.00;;;;;;;;;;10385563;28;20033;-73
2021/10/26 19:46:11;;;;;;;26.75;10.60;;;;;;;;;;10379623;28;20100;-73
2021/10/26 19:51:14;;;;;;;21.02;8.65;;;;;;;;;;10382273;28;20049;-70
2021/10/26 19:56:17;;;;;;;;;;;;;;;;;;10374114;28;20049;-72
2021/10/26 20:01:21;;;;;;;19.95;7.88;;;;;;;;;;10371764;28;19967;-72
2021/10/26 20:06:24;;;;;;;17.70;7.22;;;;;;;;;;10368040;28;21659;-71
2021/10/26 20:11:28;;;;;;;20.95;7.32;;;;;;;;;;10383089;28;20466;-72
2021/10/26 20:16:31;;;;;;;;;;;;;;;;;;10392523;28;20521;-73
2021/10/26 20:21:44;;;;;;;21.75;8.27;;;;;;;;;;10396890;28;19928;-72
2021/10/26 20:26:55;;;;;;;18.95;8.20;;;;;;;;;;10393197;28;20061;-73
2021/10/26 20:31:58;;;;;;;20.48;8.35;;;;;;;;;;10389985;28;21460;-72
2021/10/26 20:37:02;;;;;;;18.48;7.55;;;;;;;;;;10393791;28;20584;-72
2021/10/26 20:42:05;;;;;;;18.35;6.85;;;;;;;;;;10389909;28;20056;-72
2021/10/26 20:47:08;;;;;;;17.40;7.25;;;;;;;;;;10387623;28;20033;-72
2021/10/26 20:52:13;;;;;;;19.33;8.35;;;;;;;;;;10391171;28;20398;-72
2021/10/26 20:57:16;;;;;;;16.67;6.70;;;;;;;;;;10381937;28;20649;-73
2021/10/26 21:02:20;;;;;;;15.05;6.50;;;;;;;;;;10379967;28;20077;-73
2021/10/26 21:07:24;;;;;;;19.83;7.70;;;;;;;;;;10392827;28;20042;-72
2021/10/26 21:12:27;;;;;;;19.45;7.13;;;;;;;;;;10396134;28;20062;-73
2021/10/26 21:17:31;;;;;;;20.27;7.63;;;;;;;;;;10390157;28;20103;-73
2021/10/26 21:22:41;;;;;;;17.98;7.32;;;;;;;;;;10384039;28;20393;-73
2021/10/26 21:27:43;;;;;;;15.95;6.75;;;;;;;;;;10387191;28;20034;-73
2021/10/26 21:32:46;;;;;;;17.58;8.40;;;;;;;;;;10383735;28;20450;-72
2021/10/26 21:38:10;;;;;;;14.88;7.18;;;;;;;;;;10385838;28;20053;-73
2021/10/26 21:43:13;;;;;;;21.90;7.38;;;;;;;;;;10384367;28;20413;-73
2021/10/26 21:48:16;;;;;;;21.30;7.47;;;;;;;;;;10393229;28;20103;-73
2021/10/26 21:53:20;;;;;;;19.17;7.35;;;;;;;;;;10383055;28;20045;-73
2021/10/26 21:58:23;;;;;;;16.60;7.32;;;;;;;;;;10387014;28;20049;-73
2021/10/26 22:03:26;;;;;;;20.33;7.75;;;;;;;;;;10389655;28;20103;-72
2021/10/26 22:08:31;;;;;;;15.93;6.80;;;;;;;;;;10391743;28;20557;-73
2021/10/26 22:13:34;;;;;;;18.88;7.57;;;;;;;;;;10379689;28;20742;-71
2021/10/26 22:18:39;;;;;;;15.63;7.07;;;;;;;;;;10380650;28;20041;-73
2021/10/26 22:23:45;;;;;;;10.95;5.70;;;;;;;;;;10390883;28;20042;-73
2021/10/26 22:28:48;;;;;;;15.18;5.95;;;;;;;;;;10396562;28;20046;-73
2021/10/26 22:33:52;;;;;;;16.55;5.80;;;;;;;;;;10390391;28;20103;-74
2021/10/26 22:38:56;;;;;;;18.98;6.63;;;;;;;;;;10387899;28;20033;-72
2021/10/26 22:43:59;;;;;;;16.00;6.75;;;;;;;;;;10395060;28;20045;-72
2021/10/26 22:49:03;;;;;;;15.60;6.30;;;;;;;;;;10391238;28;20509;-73
2021/10/26 22:54:08;;;;;;;13.25;5.68;;;;;;;;;;10390611;28;20065;-73
2021/10/26 22:59:11;;;;;;;11.75;5.32;;;;;;;;;;10396690;28;20045;-72
2021/10/26 23:04:14;;;;;;;16.70;6.28;;;;;;;;;;10393238;28;20041;-70
2021/10/26 23:09:18;;;;;;;12.32;6.15;;;;;;;;;;10398506;28;20079;-72
2021/10/26 23:14:21;;;;;;;15.25;5.53;;;;;;;;;;10400090;28;20077;-72
2021/10/26 23:19:24;;;;;;;8.32;4.18;;;;;;;;;;10392040;28;20053;-73
2021/10/26 23:24:28;;;;;;;13.88;5.95;;;;;;;;;;10392881;28;20053;-73
2021/10/26 23:29:31;;;;;;;13.05;5.53;;;;;;;;;;10389378;28;20064;-72
2021/10/26 23:34:34;;;;;;;12.43;5.28;;;;;;;;;;10392086;28;20482;-72
2021/10/26 23:39:38;;;;;;;15.57;5.90;;;;;;;;;;10397855;28;20103;-73
2021/10/26 23:44:41;;;;;;;12.55;5.68;;;;;;;;;;10386674;28;20113;-72
2021/10/26 23:49:44;;;;;;;11.57;4.95;;;;;;;;;;10395697;28;20123;-72
2021/10/26 23:54:48;;;;;;;10.02;5.05;;;;;;;;;;10391715;28;20437;-71
2021/10/26 23:59:50;;;;;;;;;;;;;;;;;;10391674;28;20057;-72
